Scottish Airport Reports

Civil airfields updated at H+20 and H+50
RAF airfields updated at H+50 only

EGPD - Aberdeen
Distance from station: NNE 19mi, 31km
Updated: 09/08/2022 23:20
Clear
Clear
 Wind from SSW
Wind: SSW 5 mph , 7 km/h
Temperature: 17°C
Dew Point: 12°C
Humidity: 73%
Barometer: 1026 hPa
Clouds: Clear
Visibility: 6 miles , 10 km
2022/08/09 22:20 EGPD 092220Z AUTO 20004KT 170V240 9999 NCD 17/12 Q1026 NOSIG
EGPN - Dundee
Distance from station: SW 41mi, 66km
Updated: 09/08/2022 20:50
NOT Current
Few Clouds
Few Clouds
 Wind from WSW
Wind: WSW 9 mph , 15 km/h
Temperature: 20°C
Dew Point: 15°C
Humidity: 73%
Barometer: 1027 hPa
Clouds: Few Clouds
Visibility: 6 miles , 10 km
Cloud details: Few Clouds 3000 ft
2022/08/09 19:50 EGPN 091950Z 25008KT 9999 FEW030 20/15 Q1027
 
EGQS - RAF Lossiemouth
Distance from station: NNW 63mi, 102km
Updated: 09/08/2022 23:20
Clear
Clear
 Wind from SW
Wind: SW 13 mph , 20 km/h
Temperature: 17°C
Dew Point: 11°C
Humidity: 68%
Barometer: 1025 hPa
Summary: Clear
Visibility: greater than 7 miles , 10 km
2022/08/09 22:20 EGQS 092220Z 22011KT CAVOK 17/11 Q1025 NOSIG RMK BLU BLU
EGPE - Inverness
Distance from station: WNW 73mi, 117km
Updated: 09/08/2022 22:50
Few Clouds
Few Clouds
 Wind from SW
Wind: SW 10 mph , 17 km/h
Temperature: 17°C
Dew Point: 11°C
Humidity: 68%
Barometer: 1026 hPa
Clouds: Few Clouds
Visibility: 6 miles , 10 km
Cloud details: Few Clouds 3400 ft
2022/08/09 21:50 EGPE 092150Z 23009KT 9999 FEW034 17/11 Q1026
 
EGPH - Edinburgh
Distance from station: SSW 77mi, 125km
Updated: 09/08/2022 23:20
Clear
Clear
 Wind from W
Wind: W 5 mph , 7 km/h
Temperature: 14°C
Dew Point: 12°C
Humidity: 88%
Barometer: 1027 hPa
Summary: Clear
Visibility: greater than 7 miles , 10 km
2022/08/09 22:20 EGPH 092220Z 26004KT CAVOK 14/12 Q1027
EGPC - Wick
Distance from station: NNW 107mi, 172km
Updated: 09/08/2022 23:20
Clear
Clear
 Wind from S
Wind: S 16 mph , 26 km/h
Temperature: 17°C
Dew Point: 12°C
Humidity: 73%
Barometer: 1024 hPa
Clouds: Clear
Visibility: 6 miles , 10 km
2022/08/09 22:20 EGPC 092220Z AUTO 19014KT 9999 NCD 17/12 Q1024
 
EGPF - Glasgow
Distance from station: SW 107mi, 172km
Updated: 09/08/2022 23:20
Clear
Clear
 Wind from NW
Wind: NW 2 mph , 4 km/h
Temperature: 13°C
Dew Point: 12°C
Humidity: 94%
Barometer: 1028 hPa
Clouds: Clear
Visibility: 6 miles , 10 km
2022/08/09 22:20 EGPF 092220Z AUTO 31002KT 9999 NCD 13/12 Q1028
EGPK - Prestwick
Distance from station: SW 130mi, 209km
Updated: 09/08/2022 23:20
Clear
Clear
 Wind from ENE
Wind: ENE 3 mph , 6 km/h
Temperature: 14°C
Dew Point: 12°C
Humidity: 88%
Barometer: 1028 hPa
Summary: Clear
Visibility: greater than 7 miles , 10 km
2022/08/09 22:20 EGPK 092220Z 06003KT CAVOK 14/12 Q1028
 
EGPA - Kirkwall, Orkney
Distance from station: N 140mi, 225km
Updated: 09/08/2022 23:20
Clear
Clear
 Wind from S
Wind: S 14 mph , 22 km/h
Temperature: 16°C
Dew Point: 13°C
Humidity: 83%
Barometer: 1023 hPa
Clouds: Clear
Visibility: 6 miles , 10 km
2022/08/09 22:20 EGPA 092220Z AUTO 18012KT 9999 NCD 16/13 Q1023
EGPO - Stornoway, Outer Hebrides
Distance from station: WNW 169mi, 273km
Updated: 09/08/2022 23:20
Clear
Clear
 Wind from SSW
Wind: SSW 20 mph , 31 km/h
Temperature: 15°C
Dew Point: 12°C
Humidity: 82%
Barometer: 1022 hPa
Clouds: Clear
Visibility: 6 miles , 10 km
2022/08/09 22:20 EGPO 092220Z AUTO 20017KT 9999 NCD 15/12 Q1022
 
EGPI - Islay, Inner Hebrides
Distance from station: WSW 172mi, 276km
Updated: 09/08/2022 23:20
Clear
Clear
 Wind from NE
Wind: NE 5 mph , 7 km/h
Temperature: 11°C
Dew Point: 10°C
Humidity: 94%
Barometer: 1028 hPa
Clouds: Clear
Visibility: 6 miles , 10 km
2022/08/09 22:20 EGPI 092220Z AUTO 05004KT 9999 NCD 11/10 Q1028
EGPU - Tiree, Inner Hebrides
Distance from station: W 172mi, 276km
Updated: 09/08/2022 23:20
Partly cloudy
Partly cloudy
 Wind from S
Wind: S 10 mph , 17 km/h
Temperature: 14°C
Dew Point: 14°C
Humidity: 100%
Barometer: 1027 hPa
Clouds: Partly cloudy
Visibility: 6 miles , 10 km
Cloud details: Partly cloudy 600 ft
2022/08/09 22:20 EGPU 092220Z AUTO 19009KT 9999 // SCT006/// 14/14 Q1027
 
EGPB - Sumburgh, Shetland
Distance from station: NNE 208mi, 332km
Updated: 09/08/2022 23:20
Overcast
Overcast
 Wind from SW
Wind: SW 13 mph , 20 km/h
Temperature: 14°C
Dew Point: 13°C
Humidity: 94%
Barometer: 1022 hPa
Clouds: Overcast
Visibility: 4 miles , 7 km
Cloud details: Overcast 2700 ft
2022/08/09 22:20 EGPB 092220Z AUTO 23011KT 7000 OVC027/// 14/13 Q1022
-->